TimeCDT,TemperatureF,Dew PointF,Humidity,Sea Level PressureIn,VisibilityMPH,Wind Direction,Wind SpeedMPH,Gust SpeedMPH,PrecipitationIn,Events,Conditions,WindDirDegrees,DateUTC
12:15 AM,35.1,27.0,72,30.17,10.0,West,12.7,-,N/A,,Scattered Clouds,280,2012-10-06 05:15:00
12:35 AM,34.7,27.1,74,30.17,10.0,West,12.7,-,N/A,,Clear,280,2012-10-06 05:35:00
12:55 AM,34.7,27.5,75,30.17,10.0,West,12.7,-,N/A,,Scattered Clouds,280,2012-10-06 05:55:00
1:15 AM,34.2,27.7,77,30.17,10.0,West,11.5,18.4,N/A,,Scattered Clouds,280,2012-10-06 06:15:00
1:35 AM,33.8,27.5,78,30.17,10.0,West,12.7,-,N/A,,Scattered Clouds,280,2012-10-06 06:35:00
1:55 AM,34.3,28.2,78,30.17,10.0,West,11.5,-,N/A,,Mostly Cloudy,280,2012-10-06 06:55:00
2:15 AM,34.9,28.4,77,30.18,10.0,West,11.5,-,N/A,,Overcast,280,2012-10-06 07:15:00
2:35 AM,35.1,28.4,77,30.18,10.0,WNW,11.5,-,N/A,,Overcast,290,2012-10-06 07:35:00
2:55 AM,34.9,28.4,77,30.18,10.0,WNW,10.4,-,N/A,,Overcast,290,2012-10-06 07:55:00
3:15 AM,35.4,28.6,76,30.17,10.0,WNW,10.4,-,N/A,,Overcast,290,2012-10-06 08:15:00
3:35 AM,35.6,28.9,77,30.17,10.0,WNW,13.8,-,N/A,,Overcast,290,2012-10-06 08:35:00
3:55 AM,35.6,28.9,77,30.17,10.0,WNW,12.7,18.4,N/A,,Overcast,290,2012-10-06 08:55:00
4:36 AM,36.0,29.3,77,30.18,10.0,WNW,15.0,-,N/A,,Overcast,300,2012-10-06 09:36:00
4:55 AM,36.0,29.3,77,30.18,10.0,WNW,10.4,-,N/A,,Overcast,300,2012-10-06 09:55:00
5:15 AM,35.4,29.3,78,30.19,10.0,WNW,11.5,-,N/A,,Overcast,300,2012-10-06 10:15:00
5:35 AM,35.6,29.5,78,30.19,10.0,WNW,9.2,-,N/A,,Overcast,300,2012-10-06 10:35:00
5:55 AM,36.1,28.9,75,30.20,10.0,NW,11.5,18.4,N/A,,Overcast,320,2012-10-06 10:55:00
6:15 AM,36.1,28.9,75,30.20,10.0,NW,11.5,19.6,N/A,,Overcast,320,2012-10-06 11:15:00
6:35 AM,36.0,28.9,76,30.21,10.0,NW,11.5,18.4,N/A,,Overcast,310,2012-10-06 11:35:00
6:55 AM,36.0,28.9,76,30.22,10.0,NW,10.4,-,N/A,,Overcast,310,2012-10-06 11:55:00
7:15 AM,35.6,29.3,78,30.22,10.0,NW,11.5,-,N/A,,Overcast,320,2012-10-06 12:15:00
7:35 AM,35.4,29.1,78,30.23,10.0,NNW,11.5,16.1,N/A,,Overcast,330,2012-10-06 12:35:00
7:55 AM,34.9,28.9,79,30.24,10.0,NW,8.1,-,N/A,,Overcast,310,2012-10-06 12:55:00
8:15 AM,34.3,29.1,81,30.25,10.0,WNW,9.2,-,N/A,,Overcast,300,2012-10-06 13:15:00
8:35 AM,33.8,29.1,83,30.26,10.0,NW,6.9,-,N/A,,Mostly Cloudy,310,2012-10-06 13:35:00
8:55 AM,35.1,29.8,81,30.27,10.0,WNW,9.2,-,N/A,,Mostly Cloudy,300,2012-10-06 13:55:00
9:15 AM,36.1,29.1,76,30.27,10.0,NNW,13.8,-,N/A,,Overcast,330,2012-10-06 14:15:00
9:35 AM,36.5,28.8,74,30.28,10.0,NNW,12.7,20.7,N/A,,Overcast,330,2012-10-06 14:35:00
9:55 AM,37.6,28.6,70,30.28,10.0,NNW,15.0,19.6,N/A,,Mostly Cloudy,340,2012-10-06 14:55:00
10:15 AM,37.8,28.4,69,30.28,10.0,NNW,11.5,18.4,N/A,,Mostly Cloudy,340,2012-10-06 15:15:00
10:36 AM,37.6,27.9,68,30.29,10.0,NW,12.7,-,N/A,,Overcast,320,2012-10-06 15:36:00
10:55 AM,37.8,26.2,63,30.29,10.0,NW,11.5,-,N/A,,Overcast,320,2012-10-06 15:55:00
11:15 AM,40.3,26.1,57,30.28,10.0,North,13.8,19.6,N/A,,Mostly Cloudy,350,2012-10-06 16:15:00
11:35 AM,39.4,25.9,58,30.28,10.0,NNW,17.3,20.7,N/A,,Overcast,330,2012-10-06 16:35:00
11:55 AM,40.6,25.3,54,30.28,10.0,NNW,18.4,-,N/A,,Overcast,340,2012-10-06 16:55:00
12:15 PM,41.2,24.3,51,30.29,10.0,NNW,13.8,21.9,N/A,,Overcast,340,2012-10-06 17:15:00
12:35 PM,41.0,23.2,49,30.29,10.0,NNW,12.7,21.9,N/A,,Overcast,340,2012-10-06 17:35:00
12:55 PM,40.8,22.8,49,30.29,10.0,NNW,13.8,18.4,N/A,,Mostly Cloudy,340,2012-10-06 17:55:00
1:15 PM,41.0,22.3,47,30.29,10.0,NNW,10.4,17.3,N/A,,Overcast,330,2012-10-06 18:15:00
1:35 PM,41.5,23.0,48,30.28,10.0,North,12.7,17.3,N/A,,Overcast,350,2012-10-06 18:35:00
1:55 PM,41.0,23.9,51,30.28,10.0,NNW,10.4,16.1,N/A,,Overcast,340,2012-10-06 18:55:00
2:15 PM,40.6,22.8,49,30.27,10.0,NW,11.5,-,N/A,,Overcast,310,2012-10-06 19:15:00
2:35 PM,41.5,21.7,45,30.27,10.0,NW,12.7,18.4,N/A,,Overcast,320,2012-10-06 19:35:00
2:55 PM,41.4,21.9,46,30.26,10.0,NNW,9.2,18.4,N/A,,Mostly Cloudy,330,2012-10-06 19:55:00
3:15 PM,42.4,21.2,43,30.25,10.0,NW,10.4,17.3,N/A,,Mostly Cloudy,320,2012-10-06 20:15:00
3:36 PM,42.8,21.7,43,30.25,10.0,WNW,10.4,-,N/A,,Mostly Cloudy,300,2012-10-06 20:36:00
3:55 PM,41.9,21.7,45,30.25,10.0,NW,8.1,-,N/A,,Overcast,320,2012-10-06 20:55:00
4:15 PM,43.3,21.7,42,30.24,10.0,NNW,10.4,-,N/A,,Scattered Clouds,330,2012-10-06 21:15:00
4:36 PM,43.2,21.2,42,30.23,10.0,North,10.4,-,N/A,,Clear,350,2012-10-06 21:36:00
4:55 PM,43.0,21.4,42,30.23,10.0,NNW,12.7,-,N/A,,Mostly Cloudy,340,2012-10-06 21:55:00
5:15 PM,42.4,21.2,43,30.23,10.0,NNW,8.1,-,N/A,,Overcast,340,2012-10-06 22:15:00
5:35 PM,42.1,21.2,43,30.24,10.0,North,10.4,-,N/A,,Overcast,350,2012-10-06 22:35:00
5:55 PM,41.9,21.6,44,30.24,10.0,NNW,6.9,-,N/A,,Overcast,340,2012-10-06 22:55:00
6:15 PM,42.1,21.7,44,30.24,10.0,NW,9.2,-,N/A,,Overcast,310,2012-10-06 23:15:00
6:35 PM,41.5,21.9,46,30.24,10.0,WNW,5.8,-,N/A,,Overcast,300,2012-10-06 23:35:00
6:55 PM,39.7,21.4,48,30.24,10.0,WNW,4.6,-,N/A,,Mostly Cloudy,290,2012-10-06 23:55:00
7:16 PM,38.1,22.3,53,30.24,10.0,Calm,Calm,-,N/A,,Scattered Clouds,0,2012-10-07 00:16:00
7:35 PM,36.9,22.1,55,30.24,10.0,Calm,Calm,-,N/A,,Scattered Clouds,0,2012-10-07 00:35:00
7:55 PM,35.2,22.1,59,30.25,10.0,Calm,Calm,-,N/A,,Clear,0,2012-10-07 00:55:00
8:15 PM,34.0,21.4,60,30.25,10.0,WSW,3.5,-,N/A,,Clear,240,2012-10-07 01:15:00
8:35 PM,32.2,21.0,63,30.25,10.0,WSW,4.6,-,N/A,,Clear,240,2012-10-07 01:35:00
8:55 PM,32.2,21.4,64,30.25,10.0,Calm,Calm,-,N/A,,Clear,0,2012-10-07 01:55:00
9:15 PM,30.9,21.6,68,30.25,10.0,WSW,4.6,-,N/A,,Clear,250,2012-10-07 02:15:00
9:35 PM,31.6,21.0,65,30.25,10.0,WSW,3.5,-,N/A,,Clear,240,2012-10-07 02:35:00
9:55 PM,31.8,21.2,65,30.25,10.0,WSW,3.5,-,N/A,,Clear,250,2012-10-07 02:55:00
10:15 PM,30.6,20.8,67,30.25,10.0,WSW,3.5,-,N/A,,Clear,240,2012-10-07 03:15:00
10:36 PM,29.8,20.3,68,30.25,10.0,West,4.6,-,N/A,,Clear,260,2012-10-07 03:36:00
11:15 PM,28.0,19.9,72,30.24,10.0,Calm,Calm,-,N/A,,Clear,0,2012-10-07 04:15:00
11:35 PM,28.6,20.3,71,30.24,10.0,West,4.6,-,N/A,,Clear,260,2012-10-07 04:35:00
11:55 PM,28.2,20.3,72,30.24,10.0,West,3.5,-,N/A,,Clear,260,2012-10-07 04:55:00